createdAt,value
2022-10-04T00:02:15.575Z,100114.56
2022-10-04T00:05:09.233Z,100119.31
2022-10-04T00:07:58.486Z,100124.31
2022-10-04T00:10:46.833Z,100126.31
2022-10-04T00:13:34.390Z,100130.41
2022-10-04T00:16:33.680Z,100128.03
2022-10-04T00:19:19.822Z,100123.72
2022-10-04T00:22:08.402Z,100121.69
2022-10-04T00:25:07.051Z,100115.37
2022-10-04T00:28:35.616Z,100127.31
2022-10-04T00:31:26.347Z,100122.84
2022-10-04T00:34:12.486Z,100125.22
2022-10-04T00:36:58.699Z,100119.25
2022-10-04T00:39:47.537Z,100116.44
2022-10-04T00:42:42.104Z,100122.66
2022-10-04T00:45:33.462Z,100112.41
2022-10-04T00:48:41.559Z,100114.47
2022-10-04T00:51:31.943Z,100106.59
2022-10-04T00:54:27.602Z,100106.66
2022-10-04T00:57:21.457Z,100110.34
2022-10-04T01:00:12.878Z,100095.53
2022-10-04T01:03:04.074Z,100104.63
2022-10-04T01:05:53.949Z,100110.84
2022-10-04T01:08:48.590Z,100110.72
2022-10-04T01:11:42.534Z,100108.00
2022-10-04T01:14:41.418Z,100105.31
2022-10-04T01:17:27.593Z,100108.41
2022-10-04T01:20:48.870Z,100101.66
2022-10-04T01:23:42.554Z,100094.50
2022-10-04T01:26:35.011Z,100093.47
2022-10-04T01:29:27.188Z,100086.47
2022-10-04T01:32:14.263Z,100096.78
2022-10-04T01:35:00.317Z,100092.28
2022-10-04T01:37:46.749Z,100104.72
2022-10-04T01:40:33.851Z,100090.50
2022-10-04T01:43:25.119Z,100094.53
2022-10-04T01:46:14.173Z,100095.09
2022-10-04T01:49:03.913Z,100095.97
2022-10-04T01:51:57.990Z,100098.69
2022-10-04T01:54:48.939Z,100109.41
2022-10-04T01:57:42.928Z,100110.00
2022-10-04T02:00:30.648Z,100109.69
2022-10-04T02:03:21.033Z,100107.06
2022-10-04T02:06:09.167Z,100104.41
2022-10-04T02:08:57.577Z,100103.78
2022-10-04T02:11:45.002Z,100105.16
2022-10-04T02:14:35.417Z,100109.06
2022-10-04T02:17:24.158Z,100104.53
2022-10-04T02:20:17.718Z,100118.69
2022-10-04T02:23:03.573Z,100106.03
2022-10-04T02:25:49.948Z,100110.56
2022-10-04T02:28:36.650Z,100114.34
2022-10-04T02:31:42.551Z,100113.91
2022-10-04T02:34:30.021Z,100113.91
2022-10-04T02:37:18.438Z,100113.50
2022-10-04T02:40:17.369Z,100114.03
2022-10-04T02:43:09.475Z,100116.13
2022-10-04T02:46:04.426Z,100121.09
2022-10-04T02:48:59.021Z,100114.53
2022-10-04T02:52:01.306Z,100118.25
2022-10-04T02:55:12.222Z,100115.00
2022-10-04T02:57:58.953Z,100115.56
2022-10-04T03:01:05.563Z,100111.59
2022-10-04T03:03:52.440Z,100111.28
2022-10-04T03:06:39.391Z,100112.59
2022-10-04T03:09:29.734Z,100113.06
2022-10-04T03:12:16.569Z,100106.91
2022-10-04T03:15:03.128Z,100115.84
2022-10-04T03:17:50.276Z,100105.56
2022-10-04T03:20:39.903Z,100112.66
2022-10-04T03:23:26.230Z,100115.56
2022-10-04T03:26:36.856Z,100107.09
2022-10-04T03:29:25.724Z,100111.22
2022-10-04T03:32:14.306Z,100114.09
2022-10-04T03:35:04.642Z,100125.25
2022-10-04T03:37:51.031Z,100120.31
2022-10-04T03:40:38.718Z,100122.56
2022-10-04T03:43:38.341Z,100119.25
2022-10-04T03:46:25.650Z,100119.69
2022-10-04T03:49:17.375Z,100123.09
2022-10-04T03:52:04.929Z,100124.78
2022-10-04T03:54:53.537Z,100117.22
2022-10-04T03:57:39.700Z,100121.06
2022-10-04T04:00:26.145Z,100117.38
2022-10-04T04:03:16.866Z,100117.94
2022-10-04T04:06:06.371Z,100121.56
2022-10-04T04:08:54.341Z,100112.72
2022-10-04T04:11:40.525Z,100119.50
2022-10-04T04:14:27.880Z,100123.94
2022-10-04T04:17:29.393Z,100117.28
2022-10-04T04:20:36.961Z,100114.03
2022-10-04T04:23:33.080Z,100125.03
2022-10-04T04:26:25.795Z,100123.13
2022-10-04T04:29:26.261Z,100131.22
2022-10-04T04:32:23.931Z,100132.75
2022-10-04T04:35:31.855Z,100141.25
2022-10-04T04:38:22.202Z,100146.47
2022-10-04T04:41:10.823Z,100149.78
2022-10-04T04:43:58.334Z,100147.28
2022-10-04T04:46:46.466Z,100153.75
2022-10-04T04:49:33.761Z,100156.75
2022-10-04T04:52:23.046Z,100151.34
2022-10-04T04:55:18.993Z,100149.41
2022-10-04T04:58:05.180Z,100147.88
2022-10-04T05:01:00.132Z,100152.97
2022-10-04T05:04:00.173Z,100159.41
2022-10-04T05:06:49.525Z,100165.06
2022-10-04T05:09:38.544Z,100164.66
2022-10-04T05:12:24.866Z,100162.66
2022-10-04T05:15:11.183Z,100175.97
2022-10-04T05:17:57.688Z,100171.66
2022-10-04T05:20:48.833Z,100177.47
2022-10-04T05:23:35.576Z,100182.28
2022-10-04T05:26:29.689Z,100181.31
2022-10-04T05:29:18.383Z,100183.31
2022-10-04T05:32:10.258Z,100183.91
2022-10-04T05:34:57.773Z,100187.09
2022-10-04T05:38:02.507Z,100198.28
2022-10-04T05:40:59.349Z,100203.41
2022-10-04T05:43:47.559Z,100198.16
2022-10-04T05:46:34.967Z,100208.59
2022-10-04T05:49:22.552Z,100206.25
2022-10-04T05:52:15.558Z,100209.41
2022-10-04T05:55:32.396Z,100198.31
2022-10-04T05:58:21.718Z,100208.12
2022-10-04T06:01:17.368Z,100201.59
2022-10-04T06:04:44.204Z,100211.97
2022-10-04T06:07:43.608Z,100222.50
2022-10-04T06:10:58.038Z,100225.66
2022-10-04T06:13:59.485Z,100226.87
2022-10-04T06:17:04.958Z,100226.16
2022-10-04T06:20:01.869Z,100235.19
2022-10-04T06:22:49.641Z,100240.53
2022-10-04T06:25:43.153Z,100241.03
2022-10-04T06:28:36.955Z,100234.00
2022-10-04T06:31:45.102Z,100244.72
2022-10-04T06:34:45.412Z,100246.53
2022-10-04T06:38:04.018Z,100248.81
2022-10-04T06:41:01.483Z,100243.84
2022-10-04T06:44:12.540Z,100249.31
2022-10-04T06:48:10.074Z,100250.97
2022-10-04T06:51:01.938Z,100263.84
2022-10-04T06:54:13.082Z,100262.72
2022-10-04T06:57:19.016Z,100256.81
2022-10-04T07:00:26.216Z,100258.75
2022-10-04T07:03:16.121Z,100258.13
2022-10-04T07:06:07.292Z,100264.13
2022-10-04T07:08:59.565Z,100263.03
2022-10-04T07:11:59.938Z,100262.81
2022-10-04T07:14:50.330Z,100264.31
2022-10-04T07:17:40.632Z,100271.47
2022-10-04T07:20:31.229Z,100269.25
2022-10-04T07:23:51.295Z,100279.41
2022-10-04T07:26:45.339Z,100283.06
2022-10-04T07:29:39.909Z,100276.91
2022-10-04T07:32:30.124Z,100268.16
2022-10-04T07:35:32.849Z,100269.34
2022-10-04T07:38:30.180Z,100273.78
2022-10-04T07:41:31.626Z,100267.72
2022-10-04T07:44:39.822Z,100277.03
2022-10-04T07:47:27.877Z,100275.03
2022-10-04T07:50:40.251Z,100273.81
2022-10-04T07:53:37.754Z,100269.47
2022-10-04T07:56:34.285Z,100271.63
2022-10-04T07:59:35.010Z,100272.31
2022-10-04T08:02:32.399Z,100278.84
2022-10-04T08:05:29.431Z,100274.41
2022-10-04T08:08:22.680Z,100286.97
2022-10-04T08:11:14.985Z,100280.87
2022-10-04T08:14:05.098Z,100282.75
2022-10-04T08:17:00.820Z,100279.19
2022-10-04T08:20:05.631Z,100290.91
2022-10-04T08:23:01.224Z,100289.50
2022-10-04T08:25:50.065Z,100290.06
2022-10-04T08:28:55.401Z,100301.97
2022-10-04T08:31:53.114Z,100312.41
2022-10-04T08:34:53.191Z,100315.81
2022-10-04T08:37:39.264Z,100305.59
2022-10-04T08:40:26.361Z,100303.31
2022-10-04T08:43:16.938Z,100310.12
2022-10-04T08:46:06.489Z,100308.97
2022-10-04T08:49:01.485Z,100309.75
2022-10-04T08:51:53.845Z,100308.31
2022-10-04T08:54:58.004Z,100309.38
2022-10-04T08:57:56.081Z,100313.00
2022-10-04T09:00:45.295Z,100311.16
2022-10-04T09:03:35.594Z,100312.19
2022-10-04T09:06:25.968Z,100313.31
2022-10-04T09:09:21.038Z,100327.94
2022-10-04T09:12:06.949Z,100316.53
2022-10-04T09:15:06.662Z,100321.28
2022-10-04T09:18:11.503Z,100320.50
2022-10-04T09:21:01.271Z,100320.78
2022-10-04T09:23:56.422Z,100322.47
2022-10-04T09:26:43.543Z,100313.75
2022-10-04T09:29:38.765Z,100304.19
2022-10-04T09:32:34.340Z,100308.63
2022-10-04T09:35:39.012Z,100306.06
2022-10-04T09:41:45.905Z,100313.03
2022-10-04T09:44:33.653Z,100308.22
2022-10-04T09:47:22.762Z,100309.59
2022-10-04T09:50:09.358Z,100307.59
2022-10-04T09:53:11.688Z,100314.25
2022-10-04T09:56:01.059Z,100327.16
2022-10-04T09:58:53.351Z,100332.00
2022-10-04T10:01:58.372Z,100333.25
2022-10-04T10:05:03.502Z,100335.97
2022-10-04T10:07:52.643Z,100338.00
2022-10-04T10:11:00.587Z,100336.69
2022-10-04T10:14:05.638Z,100337.19
2022-10-04T10:17:10.574Z,100333.59
2022-10-04T10:20:18.434Z,100336.53
2022-10-04T10:23:04.669Z,100335.59
2022-10-04T10:26:02.962Z,100344.12
2022-10-04T10:29:08.238Z,100347.03
2022-10-04T10:32:15.241Z,100343.03
2022-10-04T10:35:20.718Z,100353.13
2022-10-04T10:38:19.213Z,100348.09
2022-10-04T10:41:05.169Z,100350.88
2022-10-04T10:44:04.105Z,100355.09
2022-10-04T10:46:51.355Z,100351.72
2022-10-04T10:49:46.675Z,100356.53
2022-10-04T10:52:48.366Z,100350.09
2022-10-04T10:55:46.257Z,100351.72
2022-10-04T10:58:38.772Z,100350.03
2022-10-04T11:01:43.362Z,100346.88
2022-10-04T11:04:29.516Z,100355.53
2022-10-04T11:07:34.404Z,100354.56
2022-10-04T11:10:39.069Z,100355.19
2022-10-04T11:13:34.028Z,100350.84
2022-10-04T11:16:38.466Z,100349.06
2022-10-04T11:19:29.355Z,100346.94
2022-10-04T11:22:24.247Z,100342.72
2022-10-04T11:25:25.253Z,100340.84
2022-10-04T11:32:00.666Z,100350.66
2022-10-04T11:35:26.728Z,100345.63
2022-10-04T11:38:16.558Z,100344.44
2022-10-04T11:41:22.370Z,100346.25
2022-10-04T11:44:31.099Z,100346.09
2022-10-04T11:47:43.352Z,100351.31
2022-10-04T11:50:48.129Z,100342.69
2022-10-04T11:54:03.618Z,100347.56
2022-10-04T11:57:12.347Z,100347.56
2022-10-04T12:00:17.791Z,100348.00
2022-10-04T12:03:27.903Z,100352.13
2022-10-04T12:06:40.101Z,100354.22
2022-10-04T12:09:45.907Z,100359.13
2022-10-04T12:13:07.788Z,100364.59
2022-10-04T12:16:16.742Z,100347.41
2022-10-04T12:19:16.791Z,100364.47
2022-10-04T12:22:23.728Z,100357.50
2022-10-04T12:25:32.938Z,100378.38
2022-10-04T12:28:47.664Z,100367.00
2022-10-04T12:31:42.824Z,100368.81
2022-10-04T12:34:38.533Z,100364.91
2022-10-04T12:37:34.767Z,100362.41
2022-10-04T12:40:33.745Z,100363.34
2022-10-04T12:44:03.739Z,100366.88
2022-10-04T12:53:56.707Z,100371.94
2022-10-04T12:56:50.534Z,100368.84
2022-10-04T13:00:00.059Z,100365.25
2022-10-04T13:03:28.769Z,100377.62
2022-10-04T13:07:00.778Z,100369.69
2022-10-04T13:10:30.175Z,100361.28
2022-10-04T13:13:35.108Z,100368.53
2022-10-04T13:20:05.905Z,100359.22
2022-10-04T13:23:19.960Z,100350.94
2022-10-04T13:29:36.295Z,100349.44
2022-10-04T13:32:30.306Z,100348.00
2022-10-04T13:35:30.939Z,100354.22
2022-10-04T13:39:02.128Z,100357.19
2022-10-04T13:42:07.653Z,100347.28
2022-10-04T13:45:36.358Z,100348.31
2022-10-04T13:48:38.235Z,100354.25
2022-10-04T13:51:32.626Z,100364.09
2022-10-04T13:55:15.313Z,100354.81
2022-10-04T13:58:25.001Z,100355.72
2022-10-04T14:01:59.708Z,100357.12
2022-10-04T14:05:19.076Z,100361.19
2022-10-04T14:08:28.925Z,100368.81
2022-10-04T14:11:38.432Z,100378.28
2022-10-04T14:18:28.881Z,100384.34
2022-10-04T14:21:57.429Z,100366.13
2022-10-04T14:25:21.303Z,100373.69
2022-10-04T14:31:37.984Z,100373.88
2022-10-04T14:34:45.866Z,100371.09
2022-10-04T14:38:15.801Z,100382.41
2022-10-04T14:41:13.992Z,100369.25
2022-10-04T14:44:26.935Z,100370.50
2022-10-04T14:47:36.335Z,100380.00
2022-10-04T14:50:36.754Z,100376.78
2022-10-04T14:53:50.079Z,100387.78
2022-10-04T14:56:59.155Z,100390.88
2022-10-04T14:59:59.462Z,100393.94
2022-10-04T15:06:36.722Z,100398.91
2022-10-04T15:10:22.935Z,100404.03
2022-10-04T15:13:40.933Z,100400.44
2022-10-04T15:16:47.285Z,100404.66
2022-10-04T15:20:02.765Z,100406.66
2022-10-04T15:23:03.722Z,100405.28
2022-10-04T15:26:05.774Z,100407.75
2022-10-04T15:32:46.792Z,100414.16
2022-10-04T15:35:39.792Z,100417.91
2022-10-04T15:38:28.008Z,100418.22
2022-10-04T15:41:31.135Z,100427.22
2022-10-04T15:44:34.938Z,100418.16
2022-10-04T15:47:53.308Z,100430.81
2022-10-04T15:50:55.983Z,100438.00
2022-10-04T15:54:04.900Z,100446.03
2022-10-04T15:57:16.738Z,100445.19
2022-10-04T16:00:12.730Z,100450.22
2022-10-04T16:03:23.014Z,100455.09
2022-10-04T16:06:12.081Z,100454.31
2022-10-04T16:09:22.752Z,100458.34
2022-10-04T16:12:31.740Z,100465.19
2022-10-04T16:18:35.187Z,100480.13
2022-10-04T16:24:53.041Z,100481.59
2022-10-04T16:27:51.954Z,100477.94
2022-10-04T16:30:44.819Z,100474.41
2022-10-04T16:33:39.776Z,100477.94
2022-10-04T16:36:32.815Z,100473.97
2022-10-04T16:39:51.695Z,100475.47
2022-10-04T16:42:45.790Z,100477.28
2022-10-04T16:48:56.786Z,100485.03
2022-10-04T16:52:12.497Z,100492.66
2022-10-04T16:55:21.795Z,100499.00
2022-10-04T17:01:55.473Z,100512.00
2022-10-04T17:04:43.913Z,100512.16
2022-10-04T17:07:48.772Z,100517.12
2022-10-04T17:10:41.315Z,100513.06
2022-10-04T17:13:26.919Z,100524.06
2022-10-04T17:16:14.783Z,100523.62
2022-10-04T17:19:20.602Z,100524.50
2022-10-04T17:22:07.049Z,100523.62
2022-10-04T17:24:56.276Z,100532.66
2022-10-04T17:27:47.085Z,100533.78
2022-10-04T17:30:43.140Z,100542.25
2022-10-04T17:33:32.152Z,100543.28
2022-10-04T17:36:21.088Z,100547.62
2022-10-04T17:39:07.577Z,100544.28
2022-10-04T17:41:56.770Z,100541.63
2022-10-04T17:44:55.411Z,100554.44
2022-10-04T17:48:01.765Z,100544.75
2022-10-04T17:51:13.593Z,100555.53
2022-10-04T17:54:22.951Z,100555.00
2022-10-04T17:57:09.140Z,100557.81
2022-10-04T17:59:57.944Z,100556.72
2022-10-04T18:03:04.840Z,100570.00
2022-10-04T18:05:55.934Z,100567.47
2022-10-04T18:08:43.997Z,100559.81
2022-10-04T18:11:33.246Z,100569.41
2022-10-04T18:14:38.368Z,100564.47
2022-10-04T18:17:27.424Z,100565.38
2022-10-04T18:20:26.478Z,100572.91
2022-10-04T18:23:15.414Z,100570.66
2022-10-04T18:26:20.259Z,100581.34
2022-10-04T18:29:07.843Z,100580.25
2022-10-04T18:31:54.013Z,100581.41
2022-10-04T18:34:40.370Z,100578.66
2022-10-04T18:37:34.187Z,100573.47
2022-10-04T18:40:22.116Z,100584.16
2022-10-04T18:43:23.466Z,100597.09
2022-10-04T18:46:12.771Z,100597.72
2022-10-04T18:49:01.728Z,100594.53
2022-10-04T18:51:54.036Z,100604.56
2022-10-04T18:54:59.451Z,100616.91
2022-10-04T18:58:05.575Z,100607.06
2022-10-04T19:01:15.839Z,100609.78
2022-10-04T19:04:03.093Z,100618.56
2022-10-04T19:06:49.356Z,100617.50
2022-10-04T19:09:51.576Z,100624.31
2022-10-04T19:12:41.096Z,100617.31
2022-10-04T19:15:39.715Z,100626.81
2022-10-04T19:18:36.227Z,100628.91
2022-10-04T19:21:31.130Z,100634.53
2022-10-04T19:24:23.050Z,100630.31
2022-10-04T19:27:21.885Z,100636.69
2022-10-04T19:30:21.513Z,100642.31
2022-10-04T19:33:14.146Z,100643.06
2022-10-04T19:36:06.990Z,100648.66
2022-10-04T19:38:53.402Z,100649.84
2022-10-04T19:41:45.504Z,100649.59
2022-10-04T19:44:42.120Z,100654.66
2022-10-04T19:47:46.733Z,100657.16
2022-10-04T19:50:37.953Z,100655.81
2022-10-04T19:53:23.596Z,100662.25
2022-10-04T19:56:20.336Z,100661.50
2022-10-04T19:59:10.333Z,100671.84
2022-10-04T20:01:56.742Z,100671.34
2022-10-04T20:04:48.667Z,100672.28
2022-10-04T20:07:34.908Z,100672.16
2022-10-04T20:10:34.373Z,100673.22
2022-10-04T20:13:21.480Z,100669.59
2022-10-04T20:16:08.016Z,100671.22
2022-10-04T20:18:58.638Z,100676.41
2022-10-04T20:21:44.866Z,100676.91
2022-10-04T20:24:37.199Z,100670.87
2022-10-04T20:27:23.789Z,100680.47
2022-10-04T20:30:16.635Z,100674.69
2022-10-04T20:33:02.888Z,100681.97
2022-10-04T20:35:58.963Z,100682.34
2022-10-04T20:38:51.617Z,100690.72
2022-10-04T20:41:56.369Z,100694.50
2022-10-04T20:44:43.671Z,100691.59
2022-10-04T20:47:29.683Z,100696.62
2022-10-04T20:50:17.649Z,100698.00
2022-10-04T20:53:06.100Z,100697.53
2022-10-04T20:56:08.061Z,100702.19
2022-10-04T20:58:54.422Z,100695.00
2022-10-04T21:01:46.465Z,100702.28
2022-10-04T21:04:47.201Z,100698.06
2022-10-04T21:07:33.486Z,100700.38
2022-10-04T21:10:19.960Z,100700.84
2022-10-04T21:13:06.008Z,100705.22
2022-10-04T21:15:55.310Z,100703.50
2022-10-04T21:18:41.598Z,100711.09
2022-10-04T21:21:46.380Z,100708.59
2022-10-04T21:24:36.679Z,100707.66
2022-10-04T21:27:26.594Z,100704.66
2022-10-04T21:30:13.497Z,100717.88
2022-10-04T21:32:59.610Z,100720.00
2022-10-04T21:35:46.007Z,100728.97
2022-10-04T21:38:32.087Z,100718.59
2022-10-04T21:41:18.294Z,100724.13
2022-10-04T21:44:04.268Z,100732.41
2022-10-04T21:46:50.542Z,100735.31
2022-10-04T21:49:36.410Z,100737.53
2022-10-04T21:52:22.632Z,100741.31
2022-10-04T21:55:10.661Z,100738.06
2022-10-04T21:57:57.183Z,100740.50
2022-10-04T22:00:43.090Z,100739.19
2022-10-04T22:03:29.369Z,100742.50
2022-10-04T22:06:15.201Z,100741.91
2022-10-04T22:09:01.574Z,100743.53
2022-10-04T22:11:47.458Z,100742.47
2022-10-04T22:14:33.623Z,100740.06
2022-10-04T22:17:19.376Z,100746.53
2022-10-04T22:20:05.572Z,100743.25
2022-10-04T22:22:51.600Z,100755.22
2022-10-04T22:25:37.891Z,100751.66
2022-10-04T22:28:24.810Z,100754.28
2022-10-04T22:31:14.855Z,100758.28
2022-10-04T22:34:00.916Z,100763.31
2022-10-04T22:36:48.013Z,100755.84
2022-10-04T22:39:34.067Z,100751.91
2022-10-04T22:42:20.168Z,100758.34
2022-10-04T22:45:06.603Z,100759.09
2022-10-04T22:47:53.168Z,100766.13
2022-10-04T22:50:38.862Z,100759.50
2022-10-04T22:53:25.333Z,100759.50
2022-10-04T22:56:12.346Z,100765.19
2022-10-04T22:58:58.654Z,100760.72
2022-10-04T23:01:44.259Z,100758.66
2022-10-04T23:04:30.600Z,100765.03
2022-10-04T23:07:16.362Z,100766.94
2022-10-04T23:10:02.711Z,100766.94
2022-10-04T23:12:49.221Z,100767.53
2022-10-04T23:15:35.373Z,100771.97
2022-10-04T23:18:21.277Z,100777.94
2022-10-04T23:21:14.079Z,100775.19
2022-10-04T23:24:01.654Z,100780.81
2022-10-04T23:26:55.972Z,100786.25
2022-10-04T23:29:42.091Z,100778.69
2022-10-04T23:32:28.245Z,100792.44
2022-10-04T23:35:16.016Z,100794.91
2022-10-04T23:38:06.944Z,100795.03
2022-10-04T23:40:52.773Z,100805.97
2022-10-04T23:43:39.140Z,100798.88
2022-10-04T23:46:24.863Z,100800.50
2022-10-04T23:49:17.770Z,100796.94
2022-10-04T23:52:03.684Z,100798.31
2022-10-04T23:54:49.941Z,100802.69
2022-10-04T23:57:35.872Z,100804.88
